createdAt,value
2023-04-08T00:01:29.413Z,92.12
2023-04-08T00:04:14.753Z,92.39
2023-04-08T00:06:59.846Z,92.23
2023-04-08T00:09:45.420Z,93.19
2023-04-08T00:12:30.991Z,92.73
2023-04-08T00:15:16.365Z,92.44
2023-04-08T00:18:02.308Z,92.97
2023-04-08T00:20:47.658Z,92.18
2023-04-08T00:23:32.992Z,92.54
2023-04-08T00:26:18.151Z,92.18
2023-04-08T00:29:03.679Z,92.44
2023-04-08T00:31:49.017Z,92.30
2023-04-08T00:34:34.409Z,92.46
2023-04-08T00:37:19.664Z,92.28
2023-04-08T00:40:05.972Z,92.37
2023-04-08T00:42:51.315Z,92.20
2023-04-08T00:45:36.417Z,92.29
2023-04-08T00:48:21.850Z,92.10
2023-04-08T00:51:08.283Z,92.18
2023-04-08T00:53:53.329Z,92.14
2023-04-08T00:56:38.876Z,92.05
2023-04-08T00:59:23.950Z,92.78
2023-04-08T01:02:31.179Z,92.64
2023-04-08T01:05:28.955Z,91.73
2023-04-08T01:08:16.086Z,91.32
2023-04-08T01:11:03.756Z,90.79
2023-04-08T01:13:50.988Z,90.28
2023-04-08T01:16:41.361Z,90.12
2023-04-08T01:19:34.560Z,90.33
2023-04-08T01:22:33.443Z,89.86
2023-04-08T01:25:32.209Z,89.69
2023-04-08T01:28:20.006Z,90.05
2023-04-08T01:31:06.321Z,89.81
2023-04-08T01:33:52.064Z,89.29
2023-04-08T01:36:38.905Z,89.59
2023-04-08T01:39:25.477Z,89.61
2023-04-08T01:42:12.229Z,89.10
2023-04-08T01:44:59.180Z,89.05
2023-04-08T01:47:49.080Z,88.82
2023-04-08T01:50:35.317Z,89.42
2023-04-08T01:53:20.639Z,88.72
2023-04-08T01:56:09.352Z,89.00
2023-04-08T01:58:58.904Z,89.04
2023-04-08T02:01:45.535Z,89.36
2023-04-08T02:04:31.498Z,88.96
2023-04-08T02:07:17.904Z,89.00
2023-04-08T02:10:03.432Z,88.39
2023-04-08T02:12:48.977Z,88.71
2023-04-08T02:15:36.480Z,88.25
2023-04-08T02:18:27.300Z,88.16
2023-04-08T02:21:15.825Z,88.12
2023-04-08T02:24:06.307Z,88.23
2023-04-08T02:26:52.358Z,88.12
2023-04-08T02:29:41.290Z,88.37
2023-04-08T02:32:26.938Z,88.34
2023-04-08T02:35:13.225Z,88.28
2023-04-08T02:37:58.660Z,87.79
2023-04-08T02:40:44.057Z,87.71
2023-04-08T02:43:32.568Z,87.94
2023-04-08T02:46:17.794Z,87.93
2023-04-08T02:49:03.142Z,87.81
2023-04-08T02:51:48.904Z,87.84
2023-04-08T02:54:34.475Z,88.23
2023-04-08T02:57:19.848Z,87.99
2023-04-08T03:00:05.956Z,87.98
2023-04-08T03:02:51.736Z,87.52
2023-04-08T03:05:37.557Z,87.63
2023-04-08T03:08:23.033Z,88.39
2023-04-08T03:11:08.222Z,88.38
2023-04-08T03:13:53.777Z,88.24
2023-04-08T03:16:39.017Z,87.98
2023-04-08T03:19:24.462Z,87.98
2023-04-08T03:22:12.650Z,87.86
2023-04-08T03:24:57.616Z,87.85
2023-04-08T03:27:43.232Z,87.82
2023-04-08T03:30:28.498Z,88.04
2023-04-08T03:33:13.834Z,88.12
2023-04-08T03:35:59.238Z,88.48
2023-04-08T03:38:44.749Z,88.07
2023-04-08T03:41:30.704Z,87.91
2023-04-08T03:44:15.622Z,87.68
2023-04-08T03:47:01.043Z,87.48
2023-04-08T03:49:46.217Z,87.41
2023-04-08T03:52:31.689Z,87.92
2023-04-08T03:55:16.966Z,87.93
2023-04-08T03:58:02.364Z,88.26
2023-04-08T04:00:47.810Z,88.22
2023-04-08T04:03:33.282Z,87.57
2023-04-08T04:06:18.374Z,87.60
2023-04-08T04:09:03.642Z,87.61
2023-04-08T04:11:49.069Z,87.51
2023-04-08T04:14:34.365Z,87.99
2023-04-08T04:17:19.635Z,87.65
2023-04-08T04:20:06.555Z,87.71
2023-04-08T04:22:52.206Z,87.93
2023-04-08T04:25:39.443Z,88.07
2023-04-08T04:28:24.906Z,88.18
2023-04-08T04:31:19.599Z,88.08
2023-04-08T04:34:05.814Z,88.53
2023-04-08T04:36:51.397Z,87.97
2023-04-08T04:39:36.534Z,88.23
2023-04-08T04:42:21.732Z,87.84
2023-04-08T04:45:07.820Z,88.35
2023-04-08T04:47:52.863Z,88.70
2023-04-08T04:50:38.202Z,88.47
2023-04-08T04:53:23.874Z,88.37
2023-04-08T04:56:08.825Z,88.63
2023-04-08T04:58:54.310Z,88.99
2023-04-08T05:01:41.198Z,88.92
2023-04-08T05:04:27.222Z,89.14
2023-04-08T05:07:12.364Z,88.90
2023-04-08T05:09:57.623Z,89.00
2023-04-08T05:12:42.934Z,89.28
2023-04-08T05:15:28.190Z,89.62
2023-04-08T05:18:13.943Z,89.83
2023-04-08T05:20:59.088Z,90.13
2023-04-08T05:23:44.311Z,89.97
2023-04-08T05:26:29.612Z,90.34
2023-04-08T05:29:14.853Z,90.30
2023-04-08T05:32:00.195Z,90.21
2023-04-08T05:34:45.641Z,90.46
2023-04-08T05:37:30.935Z,90.25
2023-04-08T05:40:16.687Z,90.96
2023-04-08T05:43:01.853Z,91.10
2023-04-08T05:45:47.197Z,91.37
2023-04-08T05:48:32.691Z,91.42
2023-04-08T05:51:18.024Z,91.84
2023-04-08T05:54:03.390Z,91.89
2023-04-08T05:56:48.994Z,91.66
2023-04-08T05:59:34.268Z,91.93
2023-04-08T06:02:19.521Z,92.20
2023-04-08T06:05:05.875Z,92.43
2023-04-08T06:07:51.655Z,92.99
2023-04-08T06:10:37.312Z,92.91
2023-04-08T06:13:22.611Z,93.21
2023-04-08T06:16:15.402Z,93.48
2023-04-08T06:19:01.274Z,93.30
2023-04-08T06:21:47.383Z,93.72
2023-04-08T06:24:33.146Z,93.90
2023-04-08T06:27:18.785Z,94.06
2023-04-08T06:30:04.458Z,94.26
2023-04-08T06:32:49.850Z,94.92
2023-04-08T06:35:35.103Z,94.68
2023-04-08T06:38:20.398Z,94.42
2023-04-08T06:41:08.904Z,94.11
2023-04-08T06:43:54.170Z,94.21
2023-04-08T06:46:39.434Z,94.25
2023-04-08T06:49:24.630Z,94.77
2023-04-08T06:52:09.794Z,95.41
2023-04-08T06:54:55.052Z,95.01
2023-04-08T06:57:40.422Z,95.36
2023-04-08T07:00:25.748Z,94.90
2023-04-08T07:03:11.994Z,94.47
2023-04-08T07:05:57.137Z,94.75
2023-04-08T07:08:42.711Z,94.65
2023-04-08T07:11:28.044Z,95.38
2023-04-08T07:14:13.775Z,95.07
2023-04-08T07:16:58.786Z,94.90
2023-04-08T07:19:44.208Z,94.98
2023-04-08T07:22:29.453Z,95.42
2023-04-08T07:25:14.904Z,95.26
2023-04-08T07:27:59.809Z,95.00
2023-04-08T07:30:45.140Z,95.33
2023-04-08T07:33:30.602Z,95.04
2023-04-08T07:36:18.326Z,95.18
2023-04-08T07:39:03.995Z,95.15
2023-04-08T07:41:49.234Z,95.63
2023-04-08T07:44:34.591Z,96.47
2023-04-08T07:47:19.867Z,96.48
2023-04-08T07:50:06.061Z,95.87
2023-04-08T07:52:53.335Z,95.73
2023-04-08T07:55:40.425Z,95.19
2023-04-08T07:58:25.716Z,95.36
2023-04-08T08:01:22.424Z,94.67
2023-04-08T08:04:08.024Z,94.90
2023-04-08T08:06:53.270Z,94.94
2023-04-08T08:09:38.564Z,94.38
2023-04-08T08:12:24.055Z,93.65
2023-04-08T08:15:09.927Z,93.55
2023-04-08T08:17:55.428Z,94.00
2023-04-08T08:20:40.750Z,93.19
2023-04-08T08:23:25.938Z,92.41
2023-04-08T08:26:11.360Z,91.89
2023-04-08T08:28:56.606Z,92.67
2023-04-08T08:31:42.017Z,91.46
2023-04-08T08:34:27.206Z,91.68
2023-04-08T08:37:12.478Z,91.29
2023-04-08T08:39:57.758Z,91.65
2023-04-08T08:42:52.832Z,91.54
2023-04-08T08:45:42.157Z,89.97
2023-04-08T08:48:27.546Z,90.12
2023-04-08T08:51:13.600Z,90.74
2023-04-08T08:54:02.723Z,90.35
2023-04-08T08:56:49.107Z,90.50
2023-04-08T08:59:34.955Z,90.15
2023-04-08T09:02:29.169Z,90.48
2023-04-08T09:05:14.974Z,90.03
2023-04-08T09:08:00.534Z,90.72
2023-04-08T09:10:45.710Z,90.91
2023-04-08T09:13:37.143Z,90.17
2023-04-08T09:16:23.511Z,90.21
2023-04-08T09:19:11.265Z,90.64
2023-04-08T09:22:11.414Z,90.53
2023-04-08T09:24:57.459Z,90.20
2023-04-08T09:27:42.515Z,90.14
2023-04-08T09:30:28.306Z,90.23
2023-04-08T09:33:13.942Z,90.47
2023-04-08T09:35:59.345Z,90.59
2023-04-08T09:38:44.939Z,90.09
2023-04-08T09:41:34.400Z,89.87
2023-04-08T09:44:21.726Z,89.79
2023-04-08T09:47:20.716Z,88.84
2023-04-08T09:50:09.168Z,89.75
2023-04-08T09:53:01.353Z,90.41
2023-04-08T09:55:52.031Z,89.00
2023-04-08T09:58:58.963Z,88.25
2023-04-08T10:01:50.559Z,89.25
2023-04-08T10:04:41.777Z,88.99
2023-04-08T10:07:27.640Z,89.61
2023-04-08T10:10:12.643Z,88.68
2023-04-08T10:12:58.452Z,88.71
2023-04-08T10:15:44.343Z,88.41
2023-04-08T10:18:33.362Z,87.07
2023-04-08T10:21:31.746Z,87.67
2023-04-08T10:24:18.713Z,86.24
2023-04-08T10:27:05.792Z,87.24
2023-04-08T10:29:52.038Z,86.93
2023-04-08T10:32:41.789Z,86.59
2023-04-08T10:35:36.532Z,86.64
2023-04-08T10:38:22.471Z,86.11
2023-04-08T10:41:08.436Z,86.56
2023-04-08T10:43:53.916Z,88.04
2023-04-08T10:46:39.173Z,88.19
2023-04-08T10:49:33.335Z,89.54
2023-04-08T10:52:20.093Z,91.16
2023-04-08T10:55:06.015Z,91.18
2023-04-08T10:57:51.661Z,91.36
2023-04-08T11:00:38.710Z,92.21
2023-04-08T11:03:27.672Z,92.42
2023-04-08T11:06:13.003Z,93.13
2023-04-08T11:09:00.244Z,93.81
2023-04-08T11:11:46.672Z,94.30
2023-04-08T11:14:33.237Z,94.40
2023-04-08T11:17:19.015Z,94.40
2023-04-08T11:20:06.367Z,94.40
2023-04-08T11:22:52.141Z,94.24
2023-04-08T11:25:37.430Z,94.05
2023-04-08T11:28:23.170Z,94.43
2023-04-08T11:31:09.216Z,95.20
2023-04-08T11:33:56.251Z,95.34
2023-04-08T11:36:41.886Z,96.06
2023-04-08T11:39:27.253Z,95.89
2023-04-08T11:42:27.566Z,95.91
2023-04-08T11:45:16.243Z,97.69
2023-04-08T11:48:08.315Z,96.90
2023-04-08T11:51:05.179Z,97.03
2023-04-08T11:53:53.961Z,96.64
2023-04-08T11:56:47.354Z,97.79
2023-04-08T11:59:32.223Z,97.22
2023-04-08T12:02:18.073Z,97.85
2023-04-08T12:05:03.653Z,97.88
2023-04-08T12:07:49.019Z,98.33
2023-04-08T12:10:34.317Z,97.85
2023-04-08T12:13:19.588Z,98.12
2023-04-08T12:16:05.100Z,97.55
2023-04-08T12:18:50.433Z,98.54
2023-04-08T12:21:36.151Z,98.73
2023-04-08T12:24:21.479Z,99.61
2023-04-08T12:27:06.912Z,99.11
2023-04-08T12:29:53.435Z,99.45
2023-04-08T12:32:38.658Z,98.82
2023-04-08T12:35:23.988Z,98.60
2023-04-08T12:38:09.300Z,99.15
2023-04-08T12:40:55.669Z,98.97
2023-04-08T12:43:40.861Z,98.46
2023-04-08T12:46:26.182Z,97.90
2023-04-08T12:49:12.865Z,97.95
2023-04-08T12:51:58.335Z,98.40
2023-04-08T12:54:43.618Z,98.50
2023-04-08T12:57:29.085Z,98.52
2023-04-08T13:00:14.484Z,97.96
2023-04-08T13:02:59.737Z,98.79
2023-04-08T13:05:44.923Z,98.92
2023-04-08T13:08:30.286Z,99.08
2023-04-08T13:11:15.653Z,98.70
2023-04-08T13:14:01.054Z,98.47
2023-04-08T13:16:46.564Z,97.48
2023-04-08T13:19:32.051Z,98.33
2023-04-08T13:22:17.426Z,98.09
2023-04-08T13:25:03.260Z,98.14
2023-04-08T13:27:48.944Z,97.69
2023-04-08T13:30:35.330Z,98.22
2023-04-08T13:33:20.394Z,97.58
2023-04-08T13:36:06.416Z,97.60
2023-04-08T13:38:52.353Z,97.03
2023-04-08T13:41:37.981Z,95.55
2023-04-08T13:44:25.378Z,96.83
2023-04-08T13:47:10.834Z,97.73
2023-04-08T13:49:56.112Z,97.48
2023-04-08T13:52:41.542Z,96.67
2023-04-08T13:55:26.765Z,96.49
2023-04-08T13:58:22.881Z,96.23
2023-04-08T14:01:09.621Z,95.82
2023-04-08T14:03:55.195Z,95.67
2023-04-08T14:06:41.116Z,94.76
2023-04-08T14:09:26.501Z,94.59
2023-04-08T14:12:12.473Z,94.80
2023-04-08T14:14:58.050Z,94.43
2023-04-08T14:17:43.488Z,94.46
2023-04-08T14:20:28.734Z,94.11
2023-04-08T14:23:14.047Z,94.19
2023-04-08T14:26:01.610Z,93.73
2023-04-08T14:28:48.069Z,93.92
2023-04-08T14:31:34.174Z,93.79
2023-04-08T14:34:19.651Z,93.61
2023-04-08T14:37:05.956Z,93.62
2023-04-08T14:39:51.750Z,93.43
2023-04-08T14:42:37.295Z,93.15
2023-04-08T14:45:22.989Z,93.63
2023-04-08T14:48:08.888Z,93.68
2023-04-08T14:50:54.470Z,93.22
2023-04-08T14:53:40.633Z,93.03
2023-04-08T14:56:27.008Z,93.21
2023-04-08T14:59:13.121Z,93.52
2023-04-08T15:01:59.238Z,93.93
2023-04-08T15:04:45.002Z,93.43
2023-04-08T15:07:30.384Z,93.63
2023-04-08T15:10:16.083Z,93.63
2023-04-08T15:13:02.040Z,93.53
2023-04-08T15:15:47.700Z,94.06
2023-04-08T15:18:33.280Z,93.94
2023-04-08T15:21:19.003Z,93.60
2023-04-08T15:24:04.970Z,93.29
2023-04-08T15:26:51.010Z,93.34
2023-04-08T15:29:37.573Z,93.69
2023-04-08T15:32:23.233Z,93.27
2023-04-08T15:35:08.970Z,93.48
2023-04-08T15:37:54.704Z,93.26
2023-04-08T15:40:39.667Z,93.03
2023-04-08T15:43:25.075Z,93.03
2023-04-08T15:46:10.903Z,92.80
2023-04-08T15:48:56.388Z,92.66
2023-04-08T15:51:44.565Z,92.65
2023-04-08T15:54:31.214Z,93.10
2023-04-08T15:57:16.907Z,93.26
2023-04-08T16:00:02.887Z,94.30
2023-04-08T16:02:48.517Z,94.65
2023-04-08T16:05:36.121Z,95.04
2023-04-08T16:08:21.847Z,95.30
2023-04-08T16:11:08.719Z,95.75
2023-04-08T16:13:53.886Z,95.97
2023-04-08T16:16:39.353Z,95.71
2023-04-08T16:19:24.637Z,95.23
2023-04-08T16:22:10.155Z,95.95
2023-04-08T16:24:55.522Z,95.52
2023-04-08T16:27:41.191Z,95.48
2023-04-08T16:30:26.636Z,95.41
2023-04-08T16:33:11.873Z,95.40
2023-04-08T16:35:57.668Z,95.49
2023-04-08T16:38:42.935Z,95.50
2023-04-08T16:41:28.228Z,95.55
2023-04-08T16:44:14.740Z,95.56
2023-04-08T16:47:00.619Z,95.14
2023-04-08T16:49:45.923Z,95.49
2023-04-08T16:52:31.195Z,96.02
2023-04-08T16:55:17.350Z,96.42
2023-04-08T16:58:03.724Z,96.45
2023-04-08T17:00:49.057Z,96.27
2023-04-08T17:03:34.822Z,95.73
2023-04-08T17:06:20.261Z,95.20
2023-04-08T17:09:05.864Z,95.05
2023-04-08T17:11:51.321Z,94.99
2023-04-08T17:14:36.631Z,94.84
2023-04-08T17:17:21.793Z,94.95
2023-04-08T17:20:07.581Z,95.24
2023-04-08T17:22:53.040Z,94.98
2023-04-08T17:25:38.293Z,94.67
2023-04-08T17:28:23.801Z,94.34
2023-04-08T17:31:10.648Z,94.14
2023-04-08T17:33:56.092Z,94.98
2023-04-08T17:36:42.187Z,94.96
2023-04-08T17:39:27.159Z,94.68
2023-04-08T17:42:13.276Z,94.61
2023-04-08T17:44:59.740Z,94.69
2023-04-08T17:47:44.788Z,94.99
2023-04-08T17:50:30.384Z,95.24
2023-04-08T17:53:16.386Z,95.59
2023-04-08T17:56:02.031Z,95.48
2023-04-08T17:58:48.261Z,95.59
2023-04-08T18:01:33.418Z,95.70
2023-04-08T18:04:18.957Z,96.25
2023-04-08T18:07:05.364Z,96.33
2023-04-08T18:09:50.853Z,96.11
2023-04-08T18:12:36.227Z,95.77
2023-04-08T18:15:21.378Z,95.51
2023-04-08T18:18:06.859Z,95.34
2023-04-08T18:20:51.977Z,95.43
2023-04-08T18:23:37.737Z,95.61
2023-04-08T18:26:22.902Z,95.50
2023-04-08T18:29:08.213Z,95.47
2023-04-08T18:31:53.433Z,95.80
2023-04-08T18:34:39.180Z,96.10
2023-04-08T18:37:24.224Z,96.38
2023-04-08T18:40:09.982Z,96.75
2023-04-08T18:42:55.029Z,96.53
2023-04-08T18:45:41.306Z,96.15
2023-04-08T18:48:26.927Z,96.16
2023-04-08T18:51:12.625Z,96.00
2023-04-08T18:53:58.050Z,95.95
2023-04-08T18:56:43.329Z,96.11
2023-04-08T18:59:28.648Z,96.38
2023-04-08T19:02:14.420Z,96.38
2023-04-08T19:04:59.887Z,96.16
2023-04-08T19:07:44.934Z,96.15
2023-04-08T19:10:31.410Z,95.85
2023-04-08T19:13:17.001Z,96.05
2023-04-08T19:16:02.261Z,96.36
2023-04-08T19:18:47.353Z,96.74
2023-04-08T19:21:33.167Z,96.47
2023-04-08T19:24:20.845Z,96.43
2023-04-08T19:27:06.270Z,96.37
2023-04-08T19:29:51.325Z,96.34
2023-04-08T19:32:36.597Z,96.73
2023-04-08T19:35:21.964Z,97.39
2023-04-08T19:38:07.817Z,97.31
2023-04-08T19:40:52.847Z,97.06
2023-04-08T19:43:37.990Z,97.21
2023-04-08T19:46:23.178Z,97.46
2023-04-08T19:49:08.401Z,96.95
2023-04-08T19:51:53.489Z,96.50
2023-04-08T19:54:41.167Z,96.35
2023-04-08T19:57:26.695Z,96.43
2023-04-08T20:00:14.147Z,96.67
2023-04-08T20:02:59.663Z,96.06
2023-04-08T20:05:46.861Z,96.13
2023-04-08T20:08:32.004Z,95.68
2023-04-08T20:11:17.275Z,95.96
2023-04-08T20:14:04.027Z,95.48
2023-04-08T20:16:49.348Z,95.74
2023-04-08T20:19:34.768Z,95.49
2023-04-08T20:22:20.928Z,95.26
2023-04-08T20:25:06.664Z,95.09
2023-04-08T20:27:52.239Z,95.29
2023-04-08T20:30:38.588Z,95.18
2023-04-08T20:33:23.874Z,95.20
2023-04-08T20:36:10.601Z,95.29
2023-04-08T20:38:56.368Z,94.92
2023-04-08T20:41:47.597Z,94.58
2023-04-08T20:44:32.964Z,94.45
2023-04-08T20:47:18.344Z,94.42
2023-04-08T20:50:03.735Z,94.19
2023-04-08T20:52:48.679Z,94.34
2023-04-08T20:55:33.983Z,93.63
2023-04-08T20:58:19.210Z,93.63
2023-04-08T21:01:04.604Z,93.85
2023-04-08T21:03:50.427Z,93.80
2023-04-08T21:06:37.665Z,93.32
2023-04-08T21:09:23.488Z,93.17
2023-04-08T21:12:08.570Z,92.98
2023-04-08T21:14:54.043Z,93.09
2023-04-08T21:17:39.345Z,93.10
2023-04-08T21:20:24.788Z,93.25
2023-04-08T21:23:10.379Z,92.56
2023-04-08T21:25:55.441Z,92.40
2023-04-08T21:28:40.836Z,92.59
2023-04-08T21:31:26.858Z,92.61
2023-04-08T21:34:13.365Z,92.23
2023-04-08T21:36:58.447Z,92.93
2023-04-08T21:39:43.566Z,92.78
2023-04-08T21:42:28.935Z,92.70
2023-04-08T21:45:15.498Z,92.89
2023-04-08T21:48:00.672Z,92.95
2023-04-08T21:50:46.167Z,93.10
2023-04-08T21:53:31.383Z,93.70
2023-04-08T21:56:17.589Z,93.62
2023-04-08T21:59:02.755Z,93.41
2023-04-08T22:01:48.653Z,93.33
2023-04-08T22:04:34.705Z,92.70
2023-04-08T22:07:19.837Z,92.44
2023-04-08T22:10:06.023Z,92.92
2023-04-08T22:12:51.279Z,92.65
2023-04-08T22:15:37.064Z,92.14
2023-04-08T22:18:22.155Z,92.58
2023-04-08T22:21:07.636Z,92.12
2023-04-08T22:23:52.751Z,92.56
2023-04-08T22:26:38.050Z,92.48
2023-04-08T22:29:23.418Z,92.60
2023-04-08T22:32:08.686Z,92.30
2023-04-08T22:34:54.078Z,92.40
2023-04-08T22:37:39.331Z,92.57
2023-04-08T22:40:24.577Z,93.16
2023-04-08T22:43:10.116Z,92.56
2023-04-08T22:45:55.721Z,93.23
2023-04-08T22:48:41.876Z,92.98
2023-04-08T22:51:27.155Z,92.59
2023-04-08T22:54:12.476Z,92.67
2023-04-08T22:56:57.890Z,92.51
2023-04-08T22:59:42.905Z,92.69
2023-04-08T23:02:28.257Z,92.62
2023-04-08T23:05:13.503Z,93.06
2023-04-08T23:07:58.833Z,93.34
2023-04-08T23:10:44.237Z,93.21
2023-04-08T23:13:29.579Z,93.81
2023-04-08T23:16:14.869Z,93.99
2023-04-08T23:19:00.119Z,94.33
2023-04-08T23:21:45.692Z,93.89
2023-04-08T23:24:33.122Z,94.30
2023-04-08T23:27:18.101Z,94.10
2023-04-08T23:30:05.781Z,94.70
2023-04-08T23:32:51.408Z,94.79
2023-04-08T23:35:39.371Z,95.08
2023-04-08T23:38:24.729Z,95.03
2023-04-08T23:41:10.407Z,95.39
2023-04-08T23:43:55.795Z,95.26
2023-04-08T23:46:41.286Z,95.20
2023-04-08T23:49:26.472Z,95.35
2023-04-08T23:52:11.845Z,95.16
2023-04-08T23:54:57.056Z,95.89
2023-04-08T23:57:43.800Z,96.47
